createdAt,value
2017-09-24T00:02:27.486Z,7.57
2017-09-24T00:06:30.943Z,6.90
2017-09-24T00:10:34.801Z,7.83
2017-09-24T00:14:38.306Z,6.60
2017-09-24T00:18:42.182Z,7.23
2017-09-24T00:22:45.635Z,6.43
2017-09-24T00:26:49.503Z,6.10
2017-09-24T00:30:52.961Z,6.90
2017-09-24T00:34:56.718Z,6.33
2017-09-24T00:39:00.939Z,7.93
2017-09-24T00:43:05.467Z,6.00
2017-09-24T00:47:09.690Z,6.27
2017-09-24T00:51:14.227Z,6.33
2017-09-24T00:55:18.442Z,5.87
2017-09-24T00:59:22.979Z,6.03
2017-09-24T01:03:27.283Z,7.23
2017-09-24T01:07:31.127Z,6.70
2017-09-24T01:11:35.357Z,6.07
2017-09-24T01:15:39.894Z,5.93
2017-09-24T01:19:43.356Z,6.90
2017-09-24T01:23:47.115Z,5.93
2017-09-24T01:27:50.563Z,6.50
2017-09-24T01:31:54.330Z,6.10
2017-09-24T01:35:58.534Z,6.57
2017-09-24T01:40:02.400Z,6.97
2017-09-24T01:44:05.859Z,5.67
2017-09-24T01:48:09.691Z,7.07
2017-09-24T01:52:13.954Z,6.50
2017-09-24T01:56:17.743Z,6.00
2017-09-24T02:00:21.206Z,6.33
2017-09-24T02:04:25.058Z,7.03
2017-09-24T02:08:29.280Z,6.80
2017-09-24T02:12:33.806Z,6.80
2017-09-24T02:16:38.035Z,6.57
2017-09-24T02:20:42.574Z,6.47
2017-09-24T02:24:46.794Z,6.70
2017-09-24T02:28:51.344Z,6.37
2017-09-24T02:32:54.803Z,6.10
2017-09-24T02:36:58.750Z,6.20
2017-09-24T02:41:02.998Z,6.67
2017-09-24T02:45:06.771Z,6.77
2017-09-24T02:49:10.229Z,7.00
2017-09-24T02:53:14.021Z,6.10
2017-09-24T02:57:18.250Z,6.10
2017-09-24T03:01:22.051Z,7.23
2017-09-24T03:05:26.270Z,7.17
2017-09-24T03:09:30.771Z,7.03
2017-09-24T03:13:34.237Z,6.60
2017-09-24T03:17:38.026Z,7.30
2017-09-24T03:21:42.251Z,6.43
2017-09-24T03:25:46.795Z,6.20
2017-09-24T03:29:51.023Z,6.43
2017-09-24T03:33:54.835Z,6.77
2017-09-24T03:37:59.070Z,7.53
2017-09-24T03:42:02.871Z,6.93
2017-09-24T03:46:07.104Z,6.53
2017-09-24T03:50:10.911Z,6.80
2017-09-24T03:54:15.126Z,6.03
2017-09-24T03:58:19.683Z,7.43
2017-09-24T04:02:23.134Z,6.90
2017-09-24T04:06:27.005Z,7.30
2017-09-24T04:10:30.463Z,7.40
2017-09-24T04:14:34.243Z,6.93
2017-09-24T04:18:37.698Z,6.67
2017-09-24T04:22:41.459Z,6.50
2017-09-24T04:26:44.919Z,6.63
2017-09-24T04:30:48.762Z,6.50
2017-09-24T04:34:52.992Z,6.40
2017-09-24T04:38:56.807Z,7.20
2017-09-24T04:43:00.337Z,6.57
2017-09-24T04:47:04.123Z,6.57
2017-09-24T04:51:08.357Z,7.63
2017-09-24T04:55:12.159Z,6.90
2017-09-24T04:59:16.373Z,7.80
2017-09-24T05:03:20.916Z,7.60
2017-09-24T05:07:25.139Z,6.60
2017-09-24T05:11:29.683Z,6.90
2017-09-24T05:15:33.915Z,6.53
2017-09-24T05:19:37.728Z,6.40
2017-09-24T05:23:41.192Z,9.47
2017-09-24T05:27:45.019Z,8.70
2017-09-24T05:31:48.491Z,9.57
2017-09-24T05:35:52.263Z,9.80
2017-09-24T05:39:56.490Z,10.17
2017-09-24T05:44:01.124Z,10.50
2017-09-24T05:48:05.353Z,10.53
2017-09-24T05:52:09.164Z,9.67
2017-09-24T05:56:13.412Z,10.00
2017-09-24T06:00:17.203Z,9.87
2017-09-24T06:04:21.432Z,10.60
2017-09-24T06:08:25.199Z,10.23
2017-09-24T06:12:28.658Z,9.77
2017-09-24T06:16:32.475Z,9.97
2017-09-24T06:20:35.944Z,10.00
2017-09-24T06:24:39.725Z,9.53
2017-09-24T06:28:43.190Z,9.33
2017-09-24T06:32:47.823Z,10.03
2017-09-24T06:36:52.095Z,9.90
2017-09-24T06:40:55.975Z,9.27
2017-09-24T06:45:00.216Z,10.27
2017-09-24T06:49:04.020Z,10.80
2017-09-24T06:53:07.485Z,10.27
2017-09-24T06:57:11.263Z,9.70
2017-09-24T07:01:14.735Z,9.57
2017-09-24T07:05:19.382Z,10.17
2017-09-24T07:09:22.855Z,9.43
2017-09-24T07:13:26.695Z,9.20
2017-09-24T07:17:30.924Z,8.67
2017-09-24T07:21:35.566Z,8.60
2017-09-24T07:25:39.043Z,9.03
2017-09-24T07:29:42.803Z,8.23
2017-09-24T07:33:46.262Z,7.33
2017-09-24T07:37:50.137Z,8.67
2017-09-24T07:41:53.616Z,8.10
2017-09-24T07:45:57.414Z,7.47
2017-09-24T07:50:01.653Z,6.70
2017-09-24T07:54:06.188Z,6.63
2017-09-24T07:58:09.649Z,7.00
2017-09-24T08:02:13.395Z,7.10
2017-09-24T08:06:17.608Z,6.60
2017-09-24T08:10:21.441Z,6.73
2017-09-24T08:14:25.680Z,6.17
2017-09-24T08:18:29.528Z,6.30
2017-09-24T08:22:32.981Z,6.77
2017-09-24T08:26:37.631Z,6.20
2017-09-24T08:30:41.858Z,5.60
2017-09-24T08:34:45.603Z,6.20
2017-09-24T08:38:49.054Z,5.53
2017-09-24T08:42:52.877Z,4.20
2017-09-24T08:46:57.179Z,4.97
2017-09-24T08:51:00.944Z,5.83
2017-09-24T08:55:04.444Z,7.93
2017-09-24T08:59:09.079Z,7.37
2017-09-24T09:03:12.561Z,7.77
2017-09-24T09:07:16.398Z,8.57
2017-09-24T09:11:20.626Z,7.40
2017-09-24T09:15:24.426Z,8.50
2017-09-24T09:19:28.658Z,9.13
2017-09-24T09:23:33.191Z,7.87
2017-09-24T09:27:37.421Z,8.33
2017-09-24T09:31:41.954Z,7.37
2017-09-24T09:35:45.422Z,6.50
2017-09-24T09:39:49.292Z,8.60
2017-09-24T09:43:52.752Z,8.10
2017-09-24T09:47:56.589Z,6.77
2017-09-24T09:52:00.811Z,7.50
2017-09-24T09:56:05.358Z,7.40
2017-09-24T10:00:08.826Z,6.40
2017-09-24T10:04:12.665Z,7.00
2017-09-24T10:08:34.531Z,6.43
2017-09-24T10:12:38.339Z,5.87
2017-09-24T10:16:41.799Z,5.53
2017-09-24T10:20:45.550Z,6.13
2017-09-24T10:24:49.784Z,6.17
2017-09-24T10:29:11.303Z,5.00
2017-09-24T10:33:15.506Z,5.40
2017-09-24T10:37:19.916Z,5.60
2017-09-24T10:41:24.166Z,4.63
2017-09-24T10:45:28.022Z,5.07
2017-09-24T10:49:31.483Z,5.20
2017-09-24T10:53:35.331Z,4.80
2017-09-24T10:57:38.792Z,5.20
2017-09-24T11:01:42.530Z,4.70
2017-09-24T11:05:46.053Z,4.33
2017-09-24T11:09:50.692Z,4.60
2017-09-24T11:13:54.151Z,4.77
2017-09-24T11:17:57.903Z,4.37
2017-09-24T11:22:02.126Z,4.17
2017-09-24T11:26:06.662Z,3.93
2017-09-24T11:30:10.880Z,4.47
2017-09-24T11:34:15.412Z,3.90
2017-09-24T11:38:19.645Z,4.33
2017-09-24T11:42:23.563Z,4.20
2017-09-24T11:46:27.795Z,3.77
2017-09-24T11:50:31.607Z,3.60
2017-09-24T11:54:35.841Z,4.47
2017-09-24T11:58:39.619Z,3.80
2017-09-24T12:02:43.041Z,3.20
2017-09-24T12:06:47.582Z,3.50
2017-09-24T12:10:51.800Z,3.23
2017-09-24T12:14:56.335Z,3.70
2017-09-24T12:19:00.550Z,3.60
2017-09-24T12:23:04.378Z,3.07
2017-09-24T12:27:08.616Z,3.63
2017-09-24T12:31:12.400Z,3.23
2017-09-24T12:35:15.868Z,4.17
2017-09-24T12:39:19.646Z,3.93
2017-09-24T12:43:23.874Z,3.80
2017-09-24T12:47:27.678Z,4.23
2017-09-24T12:51:31.931Z,4.13
2017-09-24T12:55:35.752Z,3.90
2017-09-24T12:59:39.199Z,3.60
2017-09-24T13:03:43.037Z,3.27
2017-09-24T13:07:47.307Z,3.63
2017-09-24T13:11:51.127Z,3.37
2017-09-24T13:15:54.582Z,3.63
2017-09-24T13:19:59.131Z,3.80
2017-09-24T13:24:02.590Z,3.20
2017-09-24T13:28:06.430Z,3.07
2017-09-24T13:32:09.894Z,3.07
2017-09-24T13:36:13.671Z,3.13
2017-09-24T13:40:17.926Z,3.30
2017-09-24T13:44:21.848Z,3.10
2017-09-24T13:48:25.310Z,3.20
2017-09-24T13:52:29.867Z,3.00
2017-09-24T13:56:33.336Z,2.80
2017-09-24T14:00:37.181Z,2.97
2017-09-24T14:04:40.825Z,2.70
2017-09-24T14:08:44.612Z,3.10
2017-09-24T14:12:48.074Z,3.20
2017-09-24T14:16:51.939Z,3.07
2017-09-24T14:20:55.405Z,3.57
2017-09-24T14:24:59.250Z,3.30
2017-09-24T14:29:03.471Z,2.83
2017-09-24T14:33:08.011Z,2.80
2017-09-24T14:37:12.239Z,3.10
2017-09-24T14:41:16.874Z,3.20
2017-09-24T14:45:20.362Z,3.70
2017-09-24T14:49:24.918Z,3.60
2017-09-24T14:53:28.398Z,3.70
2017-09-24T14:57:33.713Z,3.20
2017-09-24T15:01:37.242Z,3.03
2017-09-24T15:05:41.431Z,3.23
2017-09-24T15:13:30.438Z,3.23
2017-09-24T15:17:33.062Z,3.47
2017-09-24T15:21:35.995Z,3.83
2017-09-24T15:25:38.615Z,3.50
2017-09-24T15:29:41.515Z,3.40
2017-09-24T15:33:44.132Z,3.60
2017-09-24T15:37:47.149Z,2.83
2017-09-24T15:41:49.771Z,3.30
2017-09-24T15:45:52.691Z,3.73
2017-09-24T15:49:55.306Z,3.03
2017-09-24T16:00:27.659Z,3.47
2017-09-24T16:04:30.282Z,2.87
2017-09-24T16:08:33.234Z,3.10
2017-09-24T16:12:35.851Z,2.97
2017-09-24T16:16:38.796Z,2.87
2017-09-24T16:20:41.419Z,3.17
2017-09-24T16:24:44.399Z,2.90
2017-09-24T16:28:47.046Z,4.20
2017-09-24T16:32:49.973Z,3.77
2017-09-24T16:36:52.607Z,3.10
2017-09-24T16:40:55.562Z,3.20
2017-09-24T16:44:58.200Z,3.57
2017-09-24T16:49:01.143Z,3.33
2017-09-24T16:53:03.764Z,3.10
2017-09-24T16:57:06.718Z,2.83
2017-09-24T17:01:09.350Z,3.30
2017-09-24T17:05:12.333Z,3.50
2017-09-24T17:09:14.950Z,3.43
2017-09-24T17:13:17.894Z,3.07
2017-09-24T17:17:20.518Z,3.40
2017-09-24T17:21:23.629Z,3.30
2017-09-24T17:25:26.246Z,3.40
2017-09-24T17:29:29.251Z,3.00
2017-09-24T17:33:31.866Z,3.70
2017-09-24T17:37:34.846Z,3.13
2017-09-24T17:41:37.519Z,2.90
2017-09-24T17:45:40.537Z,3.50
2017-09-24T17:49:43.158Z,3.17
2017-09-24T17:53:46.148Z,3.40
2017-09-24T17:57:48.766Z,3.70
2017-09-24T18:01:51.727Z,3.60
2017-09-24T18:05:54.362Z,2.90
2017-09-24T18:09:57.379Z,3.10
2017-09-24T18:13:59.999Z,2.90
2017-09-24T18:18:02.963Z,3.53
2017-09-24T18:22:05.591Z,3.77
2017-09-24T18:26:08.618Z,3.33
2017-09-24T18:30:11.262Z,3.37
2017-09-24T18:34:14.232Z,3.37
2017-09-24T18:38:16.955Z,3.50
2017-09-24T18:42:19.910Z,3.30
2017-09-24T18:46:22.601Z,4.73
2017-09-24T18:50:25.727Z,3.80
2017-09-24T18:54:28.347Z,4.30
2017-09-24T18:58:31.377Z,3.43
2017-09-24T19:02:33.999Z,3.73
2017-09-24T19:06:36.975Z,4.13
2017-09-24T19:10:39.600Z,3.93
2017-09-24T19:14:42.550Z,3.80
2017-09-24T19:18:45.153Z,4.13
2017-09-24T19:22:48.231Z,4.50
2017-09-24T19:26:50.856Z,4.57
2017-09-24T19:30:53.818Z,4.20
2017-09-24T19:34:56.455Z,4.10
2017-09-24T19:38:59.382Z,3.60
2017-09-24T19:43:02.170Z,4.30
2017-09-24T19:47:05.178Z,4.70
2017-09-24T19:51:07.802Z,3.70
2017-09-24T19:55:10.770Z,4.10
2017-09-24T19:59:13.397Z,4.07
2017-09-24T20:03:16.514Z,4.20
2017-09-24T20:07:19.178Z,4.80
2017-09-24T20:11:22.199Z,4.20
2017-09-24T20:15:24.878Z,5.00
2017-09-24T20:19:27.827Z,4.30
2017-09-24T20:23:30.438Z,5.27
2017-09-24T20:27:33.510Z,5.50
2017-09-24T20:31:36.130Z,5.53
2017-09-24T20:35:39.090Z,5.57
2017-09-24T20:39:41.876Z,5.07
2017-09-24T20:43:44.883Z,4.80
2017-09-24T20:47:47.509Z,5.30
2017-09-24T20:51:50.464Z,5.47
2017-09-24T20:55:53.173Z,5.00
2017-09-24T20:59:56.146Z,5.37
2017-09-24T21:03:58.859Z,5.80
2017-09-24T21:08:01.832Z,5.50
2017-09-24T21:12:04.466Z,5.00
2017-09-24T21:16:07.423Z,5.50
2017-09-24T21:20:10.054Z,5.40
2017-09-24T21:24:13.003Z,5.40
2017-09-24T21:28:15.618Z,5.13
2017-09-24T21:32:18.578Z,6.13
2017-09-24T21:36:21.208Z,5.00
2017-09-24T21:40:24.122Z,6.00
2017-09-24T21:44:26.739Z,5.47
2017-09-24T21:48:29.703Z,5.80
2017-09-24T21:52:32.328Z,6.00
2017-09-24T21:56:35.332Z,5.43
2017-09-24T22:00:38.106Z,6.10
2017-09-24T22:04:41.110Z,5.13
2017-09-24T22:08:43.778Z,5.83
2017-09-24T22:12:46.809Z,5.53
2017-09-24T22:16:49.429Z,5.70
2017-09-24T22:20:52.386Z,6.30
2017-09-24T22:24:55.006Z,5.83
2017-09-24T22:28:57.967Z,4.70
2017-09-24T22:33:00.852Z,6.67
2017-09-24T22:37:03.858Z,5.10
2017-09-24T22:41:06.474Z,5.70
2017-09-24T22:45:09.438Z,5.77
2017-09-24T22:49:12.072Z,5.73
2017-09-24T22:53:15.230Z,5.13
2017-09-24T22:57:17.930Z,5.83
2017-09-24T23:01:20.918Z,5.17
2017-09-24T23:05:23.538Z,5.10
2017-09-24T23:09:26.601Z,6.00
2017-09-24T23:13:29.218Z,5.20
2017-09-24T23:17:32.177Z,5.73
2017-09-24T23:21:34.799Z,5.47
2017-09-24T23:25:37.759Z,5.40
2017-09-24T23:29:40.376Z,5.00
2017-09-24T23:33:43.350Z,5.07
2017-09-24T23:37:45.968Z,5.77
2017-09-24T23:41:48.877Z,5.67
2017-09-24T23:45:51.498Z,5.80
2017-09-24T23:49:54.511Z,6.00
2017-09-24T23:53:57.147Z,5.33
2017-09-24T23:58:00.190Z,5.73
